sensor_id;sensor_type;location;lat;lon;timestamp;P1;durP1;ratioP1;P2;durP2;ratioP2
29908;SDS011;36247;51.952;6.146;2023-10-31T00:01:25;10.23;;;7.18;;
29908;SDS011;36247;51.952;6.146;2023-10-31T00:03:51;7.35;;;5.45;;
29908;SDS011;36247;51.952;6.146;2023-10-31T00:06:17;4.05;;;3.38;;
29908;SDS011;36247;51.952;6.146;2023-10-31T00:08:42;4.78;;;3.60;;
29908;SDS011;36247;51.952;6.146;2023-10-31T00:11:08;3.17;;;2.88;;
29908;SDS011;36247;51.952;6.146;2023-10-31T00:13:37;3.05;;;2.15;;
29908;SDS011;36247;51.952;6.146;2023-10-31T00:16:03;2.78;;;2.30;;
29908;SDS011;36247;51.952;6.146;2023-10-31T00:18:30;2.38;;;1.90;;
29908;SDS011;36247;51.952;6.146;2023-10-31T00:20:59;4.00;;;2.55;;
29908;SDS011;36247;51.952;6.146;2023-10-31T00:23:24;2.55;;;1.90;;
29908;SDS011;36247;51.952;6.146;2023-10-31T00:25:51;2.10;;;1.85;;
29908;SDS011;36247;51.952;6.146;2023-10-31T00:28:17;3.95;;;1.73;;
29908;SDS011;36247;51.952;6.146;2023-10-31T00:30:44;3.55;;;1.20;;
29908;SDS011;36247;51.952;6.146;2023-10-31T00:33:10;2.50;;;1.30;;
29908;SDS011;36247;51.952;6.146;2023-10-31T00:35:37;5.07;;;2.03;;
29908;SDS011;36247;51.952;6.146;2023-10-31T00:38:03;1.63;;;1.10;;
29908;SDS011;36247;51.952;6.146;2023-10-31T00:40:30;2.05;;;1.23;;
29908;SDS011;36247;51.952;6.146;2023-10-31T00:42:56;1.67;;;1.23;;
29908;SDS011;36247;51.952;6.146;2023-10-31T00:45:23;2.78;;;1.13;;
29908;SDS011;36247;51.952;6.146;2023-10-31T00:47:49;5.28;;;1.40;;
29908;SDS011;36247;51.952;6.146;2023-10-31T00:50:15;3.42;;;1.50;;
29908;SDS011;36247;51.952;6.146;2023-10-31T00:52:41;1.58;;;1.17;;
29908;SDS011;36247;51.952;6.146;2023-10-31T00:55:07;4.18;;;1.20;;
29908;SDS011;36247;51.952;6.146;2023-10-31T00:57:33;3.97;;;1.30;;
29908;SDS011;36247;51.952;6.146;2023-10-31T00:59:58;2.00;;;1.40;;
29908;SDS011;36247;51.952;6.146;2023-10-31T01:02:28;5.20;;;2.25;;
29908;SDS011;36247;51.952;6.146;2023-10-31T01:04:53;2.95;;;2.65;;
29908;SDS011;36247;51.952;6.146;2023-10-31T01:07:19;5.95;;;3.10;;
29908;SDS011;36247;51.952;6.146;2023-10-31T01:09:45;5.97;;;2.47;;
29908;SDS011;36247;51.952;6.146;2023-10-31T01:12:14;5.95;;;3.35;;
29908;SDS011;36247;51.952;6.146;2023-10-31T01:14:39;6.05;;;3.10;;
29908;SDS011;36247;51.952;6.146;2023-10-31T01:17:06;6.85;;;2.20;;
29908;SDS011;36247;51.952;6.146;2023-10-31T01:19:33;10.70;;;2.80;;
29908;SDS011;36247;51.952;6.146;2023-10-31T01:21:59;4.47;;;2.30;;
29908;SDS011;36247;51.952;6.146;2023-10-31T01:24:24;6.72;;;2.45;;
29908;SDS011;36247;51.952;6.146;2023-10-31T01:26:50;6.03;;;3.22;;
29908;SDS011;36247;51.952;6.146;2023-10-31T01:29:16;4.18;;;3.10;;
29908;SDS011;36247;51.952;6.146;2023-10-31T01:31:41;5.95;;;3.15;;
29908;SDS011;36247;51.952;6.146;2023-10-31T01:34:08;7.05;;;4.57;;
29908;SDS011;36247;51.952;6.146;2023-10-31T01:36:34;12.80;;;7.50;;
29908;SDS011;36247;51.952;6.146;2023-10-31T01:39:01;14.95;;;9.35;;
29908;SDS011;36247;51.952;6.146;2023-10-31T01:41:28;15.10;;;9.55;;
29908;SDS011;36247;51.952;6.146;2023-10-31T01:43:54;19.90;;;10.98;;
29908;SDS011;36247;51.952;6.146;2023-10-31T01:46:20;18.00;;;10.60;;
29908;SDS011;36247;51.952;6.146;2023-10-31T01:48:45;21.83;;;11.40;;
29908;SDS011;36247;51.952;6.146;2023-10-31T01:51:12;19.80;;;11.50;;
29908;SDS011;36247;51.952;6.146;2023-10-31T01:53:38;27.10;;;12.38;;
29908;SDS011;36247;51.952;6.146;2023-10-31T01:56:05;22.95;;;13.35;;
29908;SDS011;36247;51.952;6.146;2023-10-31T01:58:39;24.20;;;14.43;;
29908;SDS011;36247;51.952;6.146;2023-10-31T02:01:08;28.95;;;15.43;;
29908;SDS011;36247;51.952;6.146;2023-10-31T02:03:34;24.33;;;15.38;;
29908;SDS011;36247;51.952;6.146;2023-10-31T02:06:00;28.80;;;16.40;;
29908;SDS011;36247;51.952;6.146;2023-10-31T02:08:28;24.95;;;16.48;;
29908;SDS011;36247;51.952;6.146;2023-10-31T02:10:54;33.67;;;17.70;;
29908;SDS011;36247;51.952;6.146;2023-10-31T02:13:20;35.50;;;17.50;;
29908;SDS011;36247;51.952;6.146;2023-10-31T02:15:45;32.85;;;16.30;;
29908;SDS011;36247;51.952;6.146;2023-10-31T02:18:15;32.20;;;19.15;;
29908;SDS011;36247;51.952;6.146;2023-10-31T02:20:41;30.50;;;18.35;;
29908;SDS011;36247;51.952;6.146;2023-10-31T02:23:07;31.77;;;18.38;;
29908;SDS011;36247;51.952;6.146;2023-10-31T02:25:33;32.92;;;17.05;;
29908;SDS011;36247;51.952;6.146;2023-10-31T02:27:59;37.42;;;18.83;;
29908;SDS011;36247;51.952;6.146;2023-10-31T02:30:26;27.02;;;18.45;;
29908;SDS011;36247;51.952;6.146;2023-10-31T02:32:52;29.42;;;17.33;;
29908;SDS011;36247;51.952;6.146;2023-10-31T02:35:19;25.08;;;17.42;;
29908;SDS011;36247;51.952;6.146;2023-10-31T02:37:46;25.13;;;16.02;;
29908;SDS011;36247;51.952;6.146;2023-10-31T02:40:13;27.75;;;17.88;;
29908;SDS011;36247;51.952;6.146;2023-10-31T02:42:39;32.92;;;18.00;;
29908;SDS011;36247;51.952;6.146;2023-10-31T02:45:05;22.98;;;16.08;;
29908;SDS011;36247;51.952;6.146;2023-10-31T02:47:32;30.52;;;16.52;;
29908;SDS011;36247;51.952;6.146;2023-10-31T02:50:01;25.58;;;16.10;;
29908;SDS011;36247;51.952;6.146;2023-10-31T02:52:32;29.50;;;17.30;;
29908;SDS011;36247;51.952;6.146;2023-10-31T02:54:58;34.08;;;18.40;;
29908;SDS011;36247;51.952;6.146;2023-10-31T02:57:24;27.17;;;17.33;;
29908;SDS011;36247;51.952;6.146;2023-10-31T02:59:50;34.33;;;19.10;;
29908;SDS011;36247;51.952;6.146;2023-10-31T03:02:16;35.20;;;19.65;;
29908;SDS011;36247;51.952;6.146;2023-10-31T03:04:42;32.10;;;18.42;;
29908;SDS011;36247;51.952;6.146;2023-10-31T03:07:08;28.75;;;17.20;;
29908;SDS011;36247;51.952;6.146;2023-10-31T03:09:34;28.90;;;16.25;;
29908;SDS011;36247;51.952;6.146;2023-10-31T03:12:05;31.65;;;18.73;;
29908;SDS011;36247;51.952;6.146;2023-10-31T03:14:34;29.08;;;19.98;;
29908;SDS011;36247;51.952;6.146;2023-10-31T03:17:01;35.10;;;19.42;;
29908;SDS011;36247;51.952;6.146;2023-10-31T03:19:26;32.20;;;18.38;;
29908;SDS011;36247;51.952;6.146;2023-10-31T03:21:53;34.85;;;21.48;;
29908;SDS011;36247;51.952;6.146;2023-10-31T03:24:19;36.50;;;20.48;;
29908;SDS011;36247;51.952;6.146;2023-10-31T03:26:47;35.20;;;20.42;;
29908;SDS011;36247;51.952;6.146;2023-10-31T03:29:13;34.67;;;20.63;;
29908;SDS011;36247;51.952;6.146;2023-10-31T03:31:39;39.70;;;22.45;;
29908;SDS011;36247;51.952;6.146;2023-10-31T03:34:08;42.83;;;23.13;;
29908;SDS011;36247;51.952;6.146;2023-10-31T03:36:34;39.78;;;20.33;;
29908;SDS011;36247;51.952;6.146;2023-10-31T03:39:05;46.25;;;24.38;;
29908;SDS011;36247;51.952;6.146;2023-10-31T03:41:31;39.75;;;22.15;;
29908;SDS011;36247;51.952;6.146;2023-10-31T03:43:58;41.00;;;23.75;;
29908;SDS011;36247;51.952;6.146;2023-10-31T03:46:24;42.25;;;23.88;;
29908;SDS011;36247;51.952;6.146;2023-10-31T03:48:50;40.83;;;20.85;;
29908;SDS011;36247;51.952;6.146;2023-10-31T03:51:16;43.08;;;23.25;;
29908;SDS011;36247;51.952;6.146;2023-10-31T03:53:41;34.17;;;20.10;;
29908;SDS011;36247;51.952;6.146;2023-10-31T03:56:07;33.08;;;18.20;;
29908;SDS011;36247;51.952;6.146;2023-10-31T03:58:33;36.38;;;19.48;;
29908;SDS011;36247;51.952;6.146;2023-10-31T04:00:59;30.40;;;19.25;;
29908;SDS011;36247;51.952;6.146;2023-10-31T04:03:25;32.50;;;19.98;;
29908;SDS011;36247;51.952;6.146;2023-10-31T04:05:51;36.10;;;19.60;;
29908;SDS011;36247;51.952;6.146;2023-10-31T04:08:16;32.50;;;19.77;;
29908;SDS011;36247;51.952;6.146;2023-10-31T04:10:42;27.80;;;18.65;;
29908;SDS011;36247;51.952;6.146;2023-10-31T04:13:10;32.80;;;19.10;;
29908;SDS011;36247;51.952;6.146;2023-10-31T04:15:36;35.03;;;19.98;;
29908;SDS011;36247;51.952;6.146;2023-10-31T04:18:03;28.65;;;18.55;;
29908;SDS011;36247;51.952;6.146;2023-10-31T04:20:29;27.17;;;18.55;;
29908;SDS011;36247;51.952;6.146;2023-10-31T04:22:55;22.40;;;14.52;;
29908;SDS011;36247;51.952;6.146;2023-10-31T04:25:21;26.52;;;16.58;;
29908;SDS011;36247;51.952;6.146;2023-10-31T04:27:47;26.58;;;16.27;;
29908;SDS011;36247;51.952;6.146;2023-10-31T04:30:14;27.75;;;15.93;;
29908;SDS011;36247;51.952;6.146;2023-10-31T04:32:40;21.52;;;10.48;;
29908;SDS011;36247;51.952;6.146;2023-10-31T04:35:06;20.95;;;13.48;;
29908;SDS011;36247;51.952;6.146;2023-10-31T04:37:32;23.17;;;12.50;;
29908;SDS011;36247;51.952;6.146;2023-10-31T04:39:58;20.58;;;11.85;;
29908;SDS011;36247;51.952;6.146;2023-10-31T04:42:24;13.80;;;8.65;;
29908;SDS011;36247;51.952;6.146;2023-10-31T04:44:51;16.70;;;9.20;;
29908;SDS011;36247;51.952;6.146;2023-10-31T04:47:16;14.55;;;9.80;;
29908;SDS011;36247;51.952;6.146;2023-10-31T04:49:42;17.15;;;11.00;;
29908;SDS011;36247;51.952;6.146;2023-10-31T04:52:09;15.20;;;10.00;;
29908;SDS011;36247;51.952;6.146;2023-10-31T04:54:34;14.93;;;8.85;;
29908;SDS011;36247;51.952;6.146;2023-10-31T04:57:03;14.98;;;9.05;;
29908;SDS011;36247;51.952;6.146;2023-10-31T04:59:30;14.88;;;8.60;;
29908;SDS011;36247;51.952;6.146;2023-10-31T05:01:58;12.52;;;7.65;;
29908;SDS011;36247;51.952;6.146;2023-10-31T05:04:24;12.77;;;7.40;;
29908;SDS011;36247;51.952;6.146;2023-10-31T05:06:50;10.98;;;7.07;;
29908;SDS011;36247;51.952;6.146;2023-10-31T05:09:16;12.80;;;7.72;;
29908;SDS011;36247;51.952;6.146;2023-10-31T05:11:43;15.38;;;7.47;;
29908;SDS011;36247;51.952;6.146;2023-10-31T05:14:09;13.75;;;7.93;;
29908;SDS011;36247;51.952;6.146;2023-10-31T05:16:42;13.82;;;8.00;;
29908;SDS011;36247;51.952;6.146;2023-10-31T05:19:12;12.40;;;7.33;;
29908;SDS011;36247;51.952;6.146;2023-10-31T05:21:37;14.02;;;7.32;;
29908;SDS011;36247;51.952;6.146;2023-10-31T05:24:04;15.27;;;9.20;;
29908;SDS011;36247;51.952;6.146;2023-10-31T05:26:31;15.13;;;9.15;;
29908;SDS011;36247;51.952;6.146;2023-10-31T05:29:06;16.58;;;9.40;;
29908;SDS011;36247;51.952;6.146;2023-10-31T05:31:38;18.73;;;9.95;;
29908;SDS011;36247;51.952;6.146;2023-10-31T05:34:03;18.27;;;11.32;;
29908;SDS011;36247;51.952;6.146;2023-10-31T05:36:29;18.02;;;12.50;;
29908;SDS011;36247;51.952;6.146;2023-10-31T05:38:56;17.88;;;10.88;;
29908;SDS011;36247;51.952;6.146;2023-10-31T05:41:21;21.27;;;13.50;;
29908;SDS011;36247;51.952;6.146;2023-10-31T05:43:48;22.17;;;12.93;;
29908;SDS011;36247;51.952;6.146;2023-10-31T05:46:14;27.02;;;14.90;;
29908;SDS011;36247;51.952;6.146;2023-10-31T05:48:43;23.85;;;15.13;;
29908;SDS011;36247;51.952;6.146;2023-10-31T05:51:14;23.35;;;15.68;;
29908;SDS011;36247;51.952;6.146;2023-10-31T05:53:41;22.13;;;13.75;;
29908;SDS011;36247;51.952;6.146;2023-10-31T05:56:09;23.98;;;16.00;;
29908;SDS011;36247;51.952;6.146;2023-10-31T05:58:37;24.90;;;14.23;;
29908;SDS011;36247;51.952;6.146;2023-10-31T06:01:06;21.00;;;12.70;;
29908;SDS011;36247;51.952;6.146;2023-10-31T06:03:36;20.52;;;12.05;;
29908;SDS011;36247;51.952;6.146;2023-10-31T06:06:05;17.48;;;9.20;;
29908;SDS011;36247;51.952;6.146;2023-10-31T06:08:31;20.13;;;10.93;;
29908;SDS011;36247;51.952;6.146;2023-10-31T06:11:03;18.85;;;9.40;;
29908;SDS011;36247;51.952;6.146;2023-10-31T06:13:29;17.02;;;9.95;;
29908;SDS011;36247;51.952;6.146;2023-10-31T06:16:00;14.38;;;9.93;;
29908;SDS011;36247;51.952;6.146;2023-10-31T06:18:26;16.55;;;9.40;;
29908;SDS011;36247;51.952;6.146;2023-10-31T06:20:53;16.45;;;9.73;;
29908;SDS011;36247;51.952;6.146;2023-10-31T06:23:19;16.90;;;10.85;;
29908;SDS011;36247;51.952;6.146;2023-10-31T06:25:46;15.65;;;10.35;;
29908;SDS011;36247;51.952;6.146;2023-10-31T06:28:18;19.92;;;10.60;;
29908;SDS011;36247;51.952;6.146;2023-10-31T06:30:50;12.00;;;9.07;;
29908;SDS011;36247;51.952;6.146;2023-10-31T06:33:16;12.45;;;8.00;;
29908;SDS011;36247;51.952;6.146;2023-10-31T06:35:41;7.97;;;5.85;;
29908;SDS011;36247;51.952;6.146;2023-10-31T06:38:07;10.18;;;6.90;;
29908;SDS011;36247;51.952;6.146;2023-10-31T06:40:33;11.43;;;6.45;;
29908;SDS011;36247;51.952;6.146;2023-10-31T06:42:59;9.88;;;6.07;;
29908;SDS011;36247;51.952;6.146;2023-10-31T06:45:28;12.70;;;6.80;;
29908;SDS011;36247;51.952;6.146;2023-10-31T06:47:54;12.35;;;6.90;;
29908;SDS011;36247;51.952;6.146;2023-10-31T06:50:20;13.75;;;8.05;;
29908;SDS011;36247;51.952;6.146;2023-10-31T06:52:49;14.18;;;8.20;;
29908;SDS011;36247;51.952;6.146;2023-10-31T06:55:15;15.27;;;8.32;;
29908;SDS011;36247;51.952;6.146;2023-10-31T06:57:41;16.20;;;9.30;;
29908;SDS011;36247;51.952;6.146;2023-10-31T07:00:06;19.65;;;10.95;;
29908;SDS011;36247;51.952;6.146;2023-10-31T07:02:36;19.13;;;10.88;;
29908;SDS011;36247;51.952;6.146;2023-10-31T07:05:02;19.40;;;11.63;;
29908;SDS011;36247;51.952;6.146;2023-10-31T07:07:31;21.25;;;11.80;;
29908;SDS011;36247;51.952;6.146;2023-10-31T07:10:01;21.88;;;11.05;;
29908;SDS011;36247;51.952;6.146;2023-10-31T07:12:28;24.55;;;11.20;;
29908;SDS011;36247;51.952;6.146;2023-10-31T07:14:57;20.75;;;11.68;;
29908;SDS011;36247;51.952;6.146;2023-10-31T07:17:24;21.38;;;11.55;;
29908;SDS011;36247;51.952;6.146;2023-10-31T07:19:50;21.60;;;12.82;;
29908;SDS011;36247;51.952;6.146;2023-10-31T07:22:16;23.92;;;13.75;;
29908;SDS011;36247;51.952;6.146;2023-10-31T07:24:43;21.58;;;12.30;;
29908;SDS011;36247;51.952;6.146;2023-10-31T07:27:09;24.45;;;12.93;;
29908;SDS011;36247;51.952;6.146;2023-10-31T07:29:35;23.27;;;13.40;;
29908;SDS011;36247;51.952;6.146;2023-10-31T07:32:04;24.50;;;13.43;;
29908;SDS011;36247;51.952;6.146;2023-10-31T07:34:30;21.52;;;13.07;;
29908;SDS011;36247;51.952;6.146;2023-10-31T07:36:56;26.45;;;15.75;;
29908;SDS011;36247;51.952;6.146;2023-10-31T07:39:22;24.30;;;13.60;;
29908;SDS011;36247;51.952;6.146;2023-10-31T07:41:49;24.23;;;14.30;;
29908;SDS011;36247;51.952;6.146;2023-10-31T07:44:15;23.48;;;15.25;;
29908;SDS011;36247;51.952;6.146;2023-10-31T07:46:41;25.45;;;15.23;;
29908;SDS011;36247;51.952;6.146;2023-10-31T07:49:06;24.52;;;15.15;;
29908;SDS011;36247;51.952;6.146;2023-10-31T07:51:32;26.75;;;16.13;;
29908;SDS011;36247;51.952;6.146;2023-10-31T07:53:58;27.95;;;16.35;;
29908;SDS011;36247;51.952;6.146;2023-10-31T07:56:24;25.55;;;15.82;;
29908;SDS011;36247;51.952;6.146;2023-10-31T07:58:51;27.27;;;15.70;;
29908;SDS011;36247;51.952;6.146;2023-10-31T08:01:17;28.20;;;16.48;;
29908;SDS011;36247;51.952;6.146;2023-10-31T08:03:43;24.55;;;15.65;;
29908;SDS011;36247;51.952;6.146;2023-10-31T08:06:11;25.08;;;16.58;;
29908;SDS011;36247;51.952;6.146;2023-10-31T08:08:36;23.42;;;16.35;;
29908;SDS011;36247;51.952;6.146;2023-10-31T08:11:03;25.15;;;15.77;;
29908;SDS011;36247;51.952;6.146;2023-10-31T08:13:32;26.30;;;17.20;;
29908;SDS011;36247;51.952;6.146;2023-10-31T08:15:59;28.33;;;17.67;;
29908;SDS011;36247;51.952;6.146;2023-10-31T08:18:25;26.85;;;17.35;;
29908;SDS011;36247;51.952;6.146;2023-10-31T08:20:50;31.65;;;17.80;;
29908;SDS011;36247;51.952;6.146;2023-10-31T08:23:18;28.15;;;17.75;;
29908;SDS011;36247;51.952;6.146;2023-10-31T08:25:44;24.33;;;17.38;;
29908;SDS011;36247;51.952;6.146;2023-10-31T08:28:11;25.65;;;18.83;;
29908;SDS011;36247;51.952;6.146;2023-10-31T08:30:39;27.83;;;16.80;;
29908;SDS011;36247;51.952;6.146;2023-10-31T08:33:08;25.27;;;17.50;;
29908;SDS011;36247;51.952;6.146;2023-10-31T08:35:34;29.27;;;19.08;;
29908;SDS011;36247;51.952;6.146;2023-10-31T08:38:01;25.45;;;17.98;;
29908;SDS011;36247;51.952;6.146;2023-10-31T08:40:28;29.92;;;18.33;;
29908;SDS011;36247;51.952;6.146;2023-10-31T08:42:54;24.45;;;17.40;;
29908;SDS011;36247;51.952;6.146;2023-10-31T08:45:20;28.30;;;17.40;;
29908;SDS011;36247;51.952;6.146;2023-10-31T08:47:47;22.08;;;15.32;;
29908;SDS011;36247;51.952;6.146;2023-10-31T08:50:14;26.25;;;16.42;;
29908;SDS011;36247;51.952;6.146;2023-10-31T08:52:40;22.25;;;16.05;;
29908;SDS011;36247;51.952;6.146;2023-10-31T08:55:06;23.20;;;16.33;;
29908;SDS011;36247;51.952;6.146;2023-10-31T08:57:32;23.05;;;14.50;;
29908;SDS011;36247;51.952;6.146;2023-10-31T08:59:59;20.38;;;13.55;;
29908;SDS011;36247;51.952;6.146;2023-10-31T09:02:25;21.38;;;14.02;;
29908;SDS011;36247;51.952;6.146;2023-10-31T09:04:52;22.02;;;13.23;;
29908;SDS011;36247;51.952;6.146;2023-10-31T09:07:18;22.25;;;14.73;;
29908;SDS011;36247;51.952;6.146;2023-10-31T09:09:44;24.15;;;14.35;;
29908;SDS011;36247;51.952;6.146;2023-10-31T09:12:10;23.50;;;12.93;;
29908;SDS011;36247;51.952;6.146;2023-10-31T09:14:37;23.27;;;13.68;;
29908;SDS011;36247;51.952;6.146;2023-10-31T09:17:04;23.38;;;13.65;;
29908;SDS011;36247;51.952;6.146;2023-10-31T09:19:29;17.58;;;11.57;;
29908;SDS011;36247;51.952;6.146;2023-10-31T09:21:55;23.60;;;12.55;;
29908;SDS011;36247;51.952;6.146;2023-10-31T09:24:25;17.27;;;10.68;;
29908;SDS011;36247;51.952;6.146;2023-10-31T09:26:51;18.30;;;12.57;;
29908;SDS011;36247;51.952;6.146;2023-10-31T09:29:16;20.77;;;12.48;;
29908;SDS011;36247;51.952;6.146;2023-10-31T09:31:49;19.23;;;11.93;;
29908;SDS011;36247;51.952;6.146;2023-10-31T09:34:15;21.75;;;11.73;;
29908;SDS011;36247;51.952;6.146;2023-10-31T09:36:41;15.63;;;10.80;;
29908;SDS011;36247;51.952;6.146;2023-10-31T09:39:08;19.67;;;11.23;;
29908;SDS011;36247;51.952;6.146;2023-10-31T09:41:34;18.17;;;10.82;;
29908;SDS011;36247;51.952;6.146;2023-10-31T09:44:01;19.42;;;11.35;;
29908;SDS011;36247;51.952;6.146;2023-10-31T09:46:28;16.92;;;10.77;;
29908;SDS011;36247;51.952;6.146;2023-10-31T09:48:55;16.77;;;10.90;;
29908;SDS011;36247;51.952;6.146;2023-10-31T09:51:21;19.48;;;11.43;;
29908;SDS011;36247;51.952;6.146;2023-10-31T09:53:50;20.80;;;10.85;;
29908;SDS011;36247;51.952;6.146;2023-10-31T09:56:20;17.35;;;10.63;;
29908;SDS011;36247;51.952;6.146;2023-10-31T09:58:46;15.60;;;10.07;;
29908;SDS011;36247;51.952;6.146;2023-10-31T10:01:15;16.27;;;10.90;;
29908;SDS011;36247;51.952;6.146;2023-10-31T10:03:41;20.10;;;11.07;;
29908;SDS011;36247;51.952;6.146;2023-10-31T10:06:07;16.40;;;11.55;;
29908;SDS011;36247;51.952;6.146;2023-10-31T10:08:38;17.00;;;11.65;;
29908;SDS011;36247;51.952;6.146;2023-10-31T10:11:04;17.23;;;11.88;;
29908;SDS011;36247;51.952;6.146;2023-10-31T10:13:32;19.27;;;11.82;;
29908;SDS011;36247;51.952;6.146;2023-10-31T10:15:58;16.77;;;11.48;;
29908;SDS011;36247;51.952;6.146;2023-10-31T10:18:25;15.38;;;11.25;;
29908;SDS011;36247;51.952;6.146;2023-10-31T10:20:58;15.73;;;11.35;;
29908;SDS011;36247;51.952;6.146;2023-10-31T10:23:26;14.32;;;11.32;;
29908;SDS011;36247;51.952;6.146;2023-10-31T10:25:53;15.38;;;11.00;;
29908;SDS011;36247;51.952;6.146;2023-10-31T10:28:19;18.35;;;11.70;;
29908;SDS011;36247;51.952;6.146;2023-10-31T10:30:46;20.40;;;11.98;;
29908;SDS011;36247;51.952;6.146;2023-10-31T10:33:14;16.58;;;11.52;;
29908;SDS011;36247;51.952;6.146;2023-10-31T10:35:41;20.77;;;12.45;;
29908;SDS011;36247;51.952;6.146;2023-10-31T10:38:15;16.38;;;12.77;;
29908;SDS011;36247;51.952;6.146;2023-10-31T10:40:43;17.27;;;12.18;;
29908;SDS011;36247;51.952;6.146;2023-10-31T10:43:43;17.75;;;12.00;;
29908;SDS011;36247;51.952;6.146;2023-10-31T10:46:02;15.88;;;11.73;;
29908;SDS011;36247;51.952;6.146;2023-10-31T10:48:31;18.20;;;11.55;;
29908;SDS011;36247;51.952;6.146;2023-10-31T10:51:14;14.95;;;11.60;;
29908;SDS011;36247;51.952;6.146;2023-10-31T10:53:48;15.93;;;10.73;;
29908;SDS011;36247;51.952;6.146;2023-10-31T10:57:20;21.35;;;11.68;;
29908;SDS011;36247;51.952;6.146;2023-10-31T10:59:30;12.68;;;9.75;;
29908;SDS011;36247;51.952;6.146;2023-10-31T11:02:08;15.18;;;8.98;;
29908;SDS011;36247;51.952;6.146;2023-10-31T11:04:36;17.42;;;9.63;;
29908;SDS011;36247;51.952;6.146;2023-10-31T11:07:06;15.13;;;9.30;;
29908;SDS011;36247;51.952;6.146;2023-10-31T11:09:33;14.43;;;9.15;;
29908;SDS011;36247;51.952;6.146;2023-10-31T11:12:04;15.15;;;8.55;;
29908;SDS011;36247;51.952;6.146;2023-10-31T11:14:31;15.88;;;9.43;;
29908;SDS011;36247;51.952;6.146;2023-10-31T11:17:00;13.02;;;9.75;;
29908;SDS011;36247;51.952;6.146;2023-10-31T11:19:32;17.40;;;9.68;;
29908;SDS011;36247;51.952;6.146;2023-10-31T11:22:00;19.67;;;10.15;;
29908;SDS011;36247;51.952;6.146;2023-10-31T11:24:33;17.23;;;11.52;;
29908;SDS011;36247;51.952;6.146;2023-10-31T11:27:04;15.35;;;10.18;;
29908;SDS011;36247;51.952;6.146;2023-10-31T11:29:32;17.30;;;12.05;;
29908;SDS011;36247;51.952;6.146;2023-10-31T11:32:01;18.15;;;13.60;;
29908;SDS011;36247;51.952;6.146;2023-10-31T11:34:39;24.33;;;14.63;;
29908;SDS011;36247;51.952;6.146;2023-10-31T11:42:46;25.75;;;16.88;;
29908;SDS011;36247;51.952;6.146;2023-10-31T11:45:23;29.63;;;18.85;;
29908;SDS011;36247;51.952;6.146;2023-10-31T11:48:01;32.28;;;21.23;;
29908;SDS011;36247;51.952;6.146;2023-10-31T11:50:32;32.42;;;21.20;;
29908;SDS011;36247;51.952;6.146;2023-10-31T11:55:33;41.20;;;23.77;;
29908;SDS011;36247;51.952;6.146;2023-10-31T12:00:47;40.90;;;24.48;;
29908;SDS011;36247;51.952;6.146;2023-10-31T12:03:15;36.50;;;23.55;;
29908;SDS011;36247;51.952;6.146;2023-10-31T12:05:55;39.90;;;24.98;;
29908;SDS011;36247;51.952;6.146;2023-10-31T12:11:09;41.88;;;22.98;;
29908;SDS011;36247;51.952;6.146;2023-10-31T12:13:37;40.10;;;23.90;;
29908;SDS011;36247;51.952;6.146;2023-10-31T12:16:12;40.53;;;24.00;;
29908;SDS011;36247;51.952;6.146;2023-10-31T12:18:39;41.10;;;24.98;;
29908;SDS011;36247;51.952;6.146;2023-10-31T12:21:06;37.80;;;23.20;;
29908;SDS011;36247;51.952;6.146;2023-10-31T12:23:33;39.75;;;23.83;;
29908;SDS011;36247;51.952;6.146;2023-10-31T12:26:00;32.90;;;21.10;;
29908;SDS011;36247;51.952;6.146;2023-10-31T12:28:26;38.08;;;23.10;;
29908;SDS011;36247;51.952;6.146;2023-10-31T12:30:54;35.55;;;20.60;;
29908;SDS011;36247;51.952;6.146;2023-10-31T12:33:21;38.10;;;21.85;;
29908;SDS011;36247;51.952;6.146;2023-10-31T12:35:51;36.55;;;22.23;;
29908;SDS011;36247;51.952;6.146;2023-10-31T12:38:22;34.03;;;20.80;;
29908;SDS011;36247;51.952;6.146;2023-10-31T12:40:49;38.22;;;21.13;;
29908;SDS011;36247;51.952;6.146;2023-10-31T12:43:16;37.00;;;20.63;;
29908;SDS011;36247;51.952;6.146;2023-10-31T12:45:42;36.08;;;21.20;;
29908;SDS011;36247;51.952;6.146;2023-10-31T12:48:09;38.15;;;20.85;;
29908;SDS011;36247;51.952;6.146;2023-10-31T12:50:36;42.38;;;21.08;;
29908;SDS011;36247;51.952;6.146;2023-10-31T12:53:06;38.58;;;22.48;;
29908;SDS011;36247;51.952;6.146;2023-10-31T12:55:40;39.65;;;21.42;;
29908;SDS011;36247;51.952;6.146;2023-10-31T12:58:07;40.08;;;21.05;;
29908;SDS011;36247;51.952;6.146;2023-10-31T13:00:36;36.05;;;20.80;;
29908;SDS011;36247;51.952;6.146;2023-10-31T13:03:06;33.33;;;21.33;;
29908;SDS011;36247;51.952;6.146;2023-10-31T13:05:34;40.67;;;20.88;;
29908;SDS011;36247;51.952;6.146;2023-10-31T13:08:01;39.95;;;20.95;;
29908;SDS011;36247;51.952;6.146;2023-10-31T13:10:31;38.10;;;19.40;;
29908;SDS011;36247;51.952;6.146;2023-10-31T13:12:59;36.10;;;20.60;;
29908;SDS011;36247;51.952;6.146;2023-10-31T13:15:26;33.45;;;19.80;;
29908;SDS011;36247;51.952;6.146;2023-10-31T13:17:52;40.53;;;20.02;;
29908;SDS011;36247;51.952;6.146;2023-10-31T13:20:19;34.22;;;19.65;;
29908;SDS011;36247;51.952;6.146;2023-10-31T13:22:47;37.30;;;19.30;;
29908;SDS011;36247;51.952;6.146;2023-10-31T13:25:29;40.42;;;19.73;;
29908;SDS011;36247;51.952;6.146;2023-10-31T13:28:08;34.30;;;18.83;;
29908;SDS011;36247;51.952;6.146;2023-10-31T13:30:37;33.97;;;18.52;;
29908;SDS011;36247;51.952;6.146;2023-10-31T13:33:03;34.35;;;18.88;;
29908;SDS011;36247;51.952;6.146;2023-10-31T13:35:30;31.85;;;19.02;;
29908;SDS011;36247;51.952;6.146;2023-10-31T13:38:07;38.63;;;18.88;;
29908;SDS011;36247;51.952;6.146;2023-10-31T13:40:43;34.53;;;19.65;;
29908;SDS011;36247;51.952;6.146;2023-10-31T13:43:09;39.08;;;19.30;;
29908;SDS011;36247;51.952;6.146;2023-10-31T13:45:36;28.85;;;18.55;;
29908;SDS011;36247;51.952;6.146;2023-10-31T13:48:03;35.50;;;18.83;;
29908;SDS011;36247;51.952;6.146;2023-10-31T13:50:30;34.80;;;18.98;;
29908;SDS011;36247;51.952;6.146;2023-10-31T13:52:59;37.30;;;16.73;;
29908;SDS011;36247;51.952;6.146;2023-10-31T13:55:25;28.42;;;15.80;;
29908;SDS011;36247;51.952;6.146;2023-10-31T13:57:51;27.80;;;17.10;;
29908;SDS011;36247;51.952;6.146;2023-10-31T14:00:17;29.85;;;17.17;;
29908;SDS011;36247;51.952;6.146;2023-10-31T14:02:42;36.17;;;16.55;;
29908;SDS011;36247;51.952;6.146;2023-10-31T14:05:09;32.97;;;16.58;;
29908;SDS011;36247;51.952;6.146;2023-10-31T14:07:35;25.15;;;15.23;;
29908;SDS011;36247;51.952;6.146;2023-10-31T14:10:01;28.90;;;16.63;;
29908;SDS011;36247;51.952;6.146;2023-10-31T14:12:26;31.05;;;18.00;;
29908;SDS011;36247;51.952;6.146;2023-10-31T14:14:53;30.33;;;16.42;;
29908;SDS011;36247;51.952;6.146;2023-10-31T14:17:19;26.10;;;15.52;;
29908;SDS011;36247;51.952;6.146;2023-10-31T14:19:47;28.73;;;15.30;;
29908;SDS011;36247;51.952;6.146;2023-10-31T14:22:13;25.10;;;14.25;;
29908;SDS011;36247;51.952;6.146;2023-10-31T14:24:39;25.67;;;14.40;;
29908;SDS011;36247;51.952;6.146;2023-10-31T14:27:05;26.02;;;14.00;;
29908;SDS011;36247;51.952;6.146;2023-10-31T14:29:30;22.85;;;13.20;;
29908;SDS011;36247;51.952;6.146;2023-10-31T14:31:56;20.65;;;11.90;;
29908;SDS011;36247;51.952;6.146;2023-10-31T14:34:23;21.05;;;12.60;;
29908;SDS011;36247;51.952;6.146;2023-10-31T14:36:49;17.65;;;12.05;;
29908;SDS011;36247;51.952;6.146;2023-10-31T14:39:14;15.63;;;11.25;;
29908;SDS011;36247;51.952;6.146;2023-10-31T14:41:40;20.95;;;12.05;;